sensor_id;sensor_type;location;lat;lon;timestamp;P1;durP1;ratioP1;P2;durP2;ratioP2
50651;SDS011;66928;52.086;5.240;2023-02-28T06:25:44;5.6;;;4.2;;
50651;SDS011;66928;52.086;5.240;2023-02-28T06:27:20;6.6;;;3.9;;
50651;SDS011;66928;52.086;5.240;2023-02-28T06:28:57;6.3;;;4.41;;
50651;SDS011;66928;52.086;5.240;2023-02-28T06:32:09;5.7;;;4.2;;
50651;SDS011;66928;52.086;5.240;2023-02-28T06:33:45;6.5;;;4.61;;
50651;SDS011;66928;52.086;5.240;2023-02-28T06:35:22;7.7;;;5.2;;
50651;SDS011;66928;52.086;5.240;2023-02-28T06:38:36;7.7;;;5.2;;
50651;SDS011;66928;52.086;5.240;2023-02-28T06:40:14;6.0;;;4.5;;
50651;SDS011;66928;52.086;5.240;2023-02-28T06:41:51;6.9;;;4.8;;
50651;SDS011;66928;52.086;5.240;2023-02-28T06:45:05;7.6;;;4.91;;
50651;SDS011;66928;52.086;5.240;2023-02-28T06:46:43;5.11;;;4.3;;
50651;SDS011;66928;52.086;5.240;2023-02-28T06:48:20;5.8;;;4.61;;
50651;SDS011;66928;52.086;5.240;2023-02-28T06:49:56;6.7;;;5.4;;
50651;SDS011;66928;52.086;5.240;2023-02-28T06:53:09;4.91;;;4.41;;
50651;SDS011;66928;52.086;5.240;2023-02-28T06:54:45;5.7;;;4.7;;
50651;SDS011;66928;52.086;5.240;2023-02-28T06:56:21;5.7;;;4.91;;
50651;SDS011;66928;52.086;5.240;2023-02-28T06:59:34;7.2;;;4.91;;
50651;SDS011;66928;52.086;5.240;2023-02-28T07:01:10;6.8;;;5.2;;
50651;SDS011;66928;52.086;5.240;2023-02-28T07:02:49;5.7;;;4.41;;
50651;SDS011;66928;52.086;5.240;2023-02-28T07:04:25;5.7;;;4.41;;
50651;SDS011;66928;52.086;5.240;2023-02-28T07:07:38;6.1;;;4.8;;
50651;SDS011;66928;52.086;5.240;2023-02-28T07:09:15;5.7;;;4.41;;
50651;SDS011;66928;52.086;5.240;2023-02-28T07:10:52;5.3;;;4.3;;
50651;SDS011;66928;52.086;5.240;2023-02-28T07:14:05;6.8;;;5.11;;
50651;SDS011;66928;52.086;5.240;2023-02-28T07:15:41;6.7;;;5.4;;
50651;SDS011;66928;52.086;5.240;2023-02-28T07:17:17;6.4;;;5.3;;
50651;SDS011;66928;52.086;5.240;2023-02-28T07:20:29;7.1;;;5.11;;
50651;SDS011;66928;52.086;5.240;2023-02-28T07:22:07;8.71;;;5.9;;
50651;SDS011;66928;52.086;5.240;2023-02-28T07:23:43;6.4;;;5.6;;
50651;SDS011;66928;52.086;5.240;2023-02-28T07:25:20;7.7;;;5.11;;
50651;SDS011;66928;52.086;5.240;2023-02-28T07:28:33;5.7;;;5.11;;
50651;SDS011;66928;52.086;5.240;2023-02-28T07:30:10;7.5;;;5.6;;
50651;SDS011;66928;52.086;5.240;2023-02-28T07:31:46;7.2;;;5.11;;
50651;SDS011;66928;52.086;5.240;2023-02-28T07:34:58;6.9;;;4.8;;
50651;SDS011;66928;52.086;5.240;2023-02-28T07:36:35;8.1;;;4.8;;
50651;SDS011;66928;52.086;5.240;2023-02-28T07:38:11;7.4;;;4.91;;
50651;SDS011;66928;52.086;5.240;2023-02-28T07:41:23;7.8;;;5.3;;
50651;SDS011;66928;52.086;5.240;2023-02-28T07:42:59;8.5;;;5.7;;
50651;SDS011;66928;52.086;5.240;2023-02-28T07:44:36;6.8;;;5.5;;
50651;SDS011;66928;52.086;5.240;2023-02-28T07:47:51;6.7;;;5.4;;
50651;SDS011;66928;52.086;5.240;2023-02-28T07:49:29;8.5;;;5.3;;
50651;SDS011;66928;52.086;5.240;2023-02-28T07:51:05;8.9;;;5.0;;
50651;SDS011;66928;52.086;5.240;2023-02-28T07:52:41;6.1;;;5.0;;
50651;SDS011;66928;52.086;5.240;2023-02-28T07:55:55;5.7;;;4.8;;
50651;SDS011;66928;52.086;5.240;2023-02-28T07:57:31;8.4;;;5.2;;
50651;SDS011;66928;52.086;5.240;2023-02-28T07:59:07;8.1;;;5.0;;
50651;SDS011;66928;52.086;5.240;2023-02-28T08:02:20;6.2;;;4.91;;
50651;SDS011;66928;52.086;5.240;2023-02-28T08:03:56;6.4;;;4.8;;
50651;SDS011;66928;52.086;5.240;2023-02-28T08:05:32;5.4;;;4.2;;
50651;SDS011;66928;52.086;5.240;2023-02-28T08:08:44;6.4;;;4.5;;
50651;SDS011;66928;52.086;5.240;2023-02-28T08:10:20;6.9;;;4.61;;
50651;SDS011;66928;52.086;5.240;2023-02-28T08:11:57;7.6;;;4.8;;
50651;SDS011;66928;52.086;5.240;2023-02-28T08:13:33;6.1;;;4.41;;
50651;SDS011;66928;52.086;5.240;2023-02-28T08:16:46;5.7;;;4.2;;
50651;SDS011;66928;52.086;5.240;2023-02-28T08:18:22;5.7;;;4.2;;
50651;SDS011;66928;52.086;5.240;2023-02-28T08:19:59;7.3;;;4.41;;
50651;SDS011;66928;52.086;5.240;2023-02-28T08:23:12;7.5;;;4.3;;
50651;SDS011;66928;52.086;5.240;2023-02-28T08:24:49;5.8;;;4.0;;
50651;SDS011;66928;52.086;5.240;2023-02-28T08:26:25;6.7;;;4.2;;
50651;SDS011;66928;52.086;5.240;2023-02-28T08:29:37;5.7;;;3.8;;
50651;SDS011;66928;52.086;5.240;2023-02-28T08:31:15;7.0;;;4.0;;
50651;SDS011;66928;52.086;5.240;2023-02-28T08:32:53;4.91;;;3.8;;
50651;SDS011;66928;52.086;5.240;2023-02-28T08:34:29;5.3;;;4.0;;
50651;SDS011;66928;52.086;5.240;2023-02-28T08:37:43;4.91;;;4.1;;
50651;SDS011;66928;52.086;5.240;2023-02-28T08:39:19;5.0;;;3.9;;
50651;SDS011;66928;52.086;5.240;2023-02-28T08:40:57;5.4;;;3.8;;
50651;SDS011;66928;52.086;5.240;2023-02-28T08:44:12;4.5;;;3.7;;
50651;SDS011;66928;52.086;5.240;2023-02-28T08:45:50;4.61;;;3.8;;
50651;SDS011;66928;52.086;5.240;2023-02-28T08:47:27;4.41;;;3.6;;
50651;SDS011;66928;52.086;5.240;2023-02-28T08:49:03;4.61;;;3.4;;
50651;SDS011;66928;52.086;5.240;2023-02-28T08:52:15;5.5;;;3.3;;
50651;SDS011;66928;52.086;5.240;2023-02-28T08:53:53;4.3;;;3.1;;
50651;SDS011;66928;52.086;5.240;2023-02-28T08:55:30;3.7;;;3.3;;
50651;SDS011;66928;52.086;5.240;2023-02-28T08:58:42;6.4;;;4.3;;
50651;SDS011;66928;52.086;5.240;2023-02-28T09:00:21;5.4;;;3.6;;
50651;SDS011;66928;52.086;5.240;2023-02-28T09:01:57;6.3;;;4.61;;
50651;SDS011;66928;52.086;5.240;2023-02-28T09:05:10;4.5;;;3.2;;
50651;SDS011;66928;52.086;5.240;2023-02-28T09:06:46;5.3;;;3.5;;
50651;SDS011;66928;52.086;5.240;2023-02-28T09:08:22;5.11;;;3.1;;
50651;SDS011;66928;52.086;5.240;2023-02-28T09:09:59;3.9;;;3.3;;
50651;SDS011;66928;52.086;5.240;2023-02-28T09:13:12;5.8;;;3.3;;
50651;SDS011;66928;52.086;5.240;2023-02-28T09:14:48;5.3;;;3.3;;
50651;SDS011;66928;52.086;5.240;2023-02-28T09:16:25;5.3;;;3.3;;
50651;SDS011;66928;52.086;5.240;2023-02-28T09:19:37;3.5;;;3.0;;
50651;SDS011;66928;52.086;5.240;2023-02-28T09:21:14;5.3;;;3.3;;
50651;SDS011;66928;52.086;5.240;2023-02-28T09:22:52;5.11;;;3.2;;
50651;SDS011;66928;52.086;5.240;2023-02-28T09:26:05;3.7;;;3.0;;
50651;SDS011;66928;52.086;5.240;2023-02-28T09:27:42;3.7;;;2.8;;
50651;SDS011;66928;52.086;5.240;2023-02-28T09:29:18;4.91;;;3.0;;
50651;SDS011;66928;52.086;5.240;2023-02-28T09:30:54;4.3;;;3.2;;
50651;SDS011;66928;52.086;5.240;2023-02-28T09:34:07;4.7;;;2.6;;
50651;SDS011;66928;52.086;5.240;2023-02-28T09:35:43;5.7;;;2.8;;
50651;SDS011;66928;52.086;5.240;2023-02-28T09:37:19;5.5;;;3.2;;
50651;SDS011;66928;52.086;5.240;2023-02-28T09:40:32;5.5;;;2.9;;
50651;SDS011;66928;52.086;5.240;2023-02-28T09:42:17;4.1;;;2.8;;
50651;SDS011;66928;52.086;5.240;2023-02-28T09:44:05;3.5;;;2.8;;
50651;SDS011;66928;52.086;5.240;2023-02-28T09:45:51;5.11;;;3.0;;
50651;SDS011;66928;52.086;5.240;2023-02-28T09:49:12;4.41;;;2.9;;
50651;SDS011;66928;52.086;5.240;2023-02-28T09:50:52;4.2;;;3.0;;
50651;SDS011;66928;52.086;5.240;2023-02-28T09:52:36;4.91;;;2.9;;
50651;SDS011;66928;52.086;5.240;2023-02-28T09:54:14;4.1;;;2.9;;
50651;SDS011;66928;52.086;5.240;2023-02-28T09:57:35;4.5;;;2.8;;
50651;SDS011;66928;52.086;5.240;2023-02-28T09:59:18;4.1;;;2.6;;
50651;SDS011;66928;52.086;5.240;2023-02-28T10:01:19;3.8;;;3.0;;
50651;SDS011;66928;52.086;5.240;2023-02-28T10:03:12;3.3;;;2.5;;
50651;SDS011;66928;52.086;5.240;2023-02-28T10:05:02;2.9;;;2.6;;
50651;SDS011;66928;52.086;5.240;2023-02-28T10:06:44;2.9;;;2.0;;
50651;SDS011;66928;52.086;5.240;2023-02-28T10:10:06;4.0;;;2.21;;
50651;SDS011;66928;52.086;5.240;2023-02-28T10:11:57;2.1;;;1.7;;
50651;SDS011;66928;52.086;5.240;2023-02-28T10:13:42;2.0;;;1.8;;
50651;SDS011;66928;52.086;5.240;2023-02-28T10:15:27;2.6;;;2.0;;
50651;SDS011;66928;52.086;5.240;2023-02-28T10:17:08;3.1;;;1.8;;
50651;SDS011;66928;52.086;5.240;2023-02-28T10:20:35;2.9;;;1.8;;
50651;SDS011;66928;52.086;5.240;2023-02-28T10:22:15;2.31;;;1.9;;
50651;SDS011;66928;52.086;5.240;2023-02-28T10:24:08;3.2;;;2.21;;
50651;SDS011;66928;52.086;5.240;2023-02-28T10:25:54;1.9;;;1.8;;
50651;SDS011;66928;52.086;5.240;2023-02-28T10:27:34;2.31;;;2.1;;
50651;SDS011;66928;52.086;5.240;2023-02-28T10:30:48;2.21;;;1.8;;
50651;SDS011;66928;52.086;5.240;2023-02-28T10:32:27;2.7;;;2.21;;
50651;SDS011;66928;52.086;5.240;2023-02-28T10:34:07;2.9;;;1.9;;
50651;SDS011;66928;52.086;5.240;2023-02-28T10:35:47;3.5;;;1.9;;
50651;SDS011;66928;52.086;5.240;2023-02-28T10:39:01;2.21;;;1.9;;
50651;SDS011;66928;52.086;5.240;2023-02-28T10:41:11;2.31;;;1.9;;
50651;SDS011;66928;52.086;5.240;2023-02-28T10:42:56;2.6;;;1.9;;
50651;SDS011;66928;52.086;5.240;2023-02-28T10:44:34;1.9;;;1.8;;
50651;SDS011;66928;52.086;5.240;2023-02-28T10:46:12;1.9;;;1.8;;
50651;SDS011;66928;52.086;5.240;2023-02-28T10:49:30;2.6;;;2.0;;
50651;SDS011;66928;52.086;5.240;2023-02-28T10:51:07;2.8;;;2.0;;
50651;SDS011;66928;52.086;5.240;2023-02-28T10:52:46;2.31;;;1.7;;
50651;SDS011;66928;52.086;5.240;2023-02-28T10:56:04;1.8;;;1.7;;
50651;SDS011;66928;52.086;5.240;2023-02-28T10:57:49;3.1;;;1.8;;
50651;SDS011;66928;52.086;5.240;2023-02-28T10:59:27;2.31;;;2.1;;
50651;SDS011;66928;52.086;5.240;2023-02-28T11:01:10;2.31;;;1.8;;
50651;SDS011;66928;52.086;5.240;2023-02-28T11:04:34;2.4;;;1.9;;
50651;SDS011;66928;52.086;5.240;2023-02-28T11:06:14;3.6;;;2.0;;
50651;SDS011;66928;52.086;5.240;2023-02-28T11:07:54;2.4;;;1.9;;
50651;SDS011;66928;52.086;5.240;2023-02-28T11:09:34;2.1;;;1.9;;
50651;SDS011;66928;52.086;5.240;2023-02-28T11:12:53;2.1;;;1.9;;
50651;SDS011;66928;52.086;5.240;2023-02-28T11:14:31;2.9;;;2.0;;
50651;SDS011;66928;52.086;5.240;2023-02-28T11:16:30;2.31;;;2.1;;
50651;SDS011;66928;52.086;5.240;2023-02-28T11:18:18;2.8;;;1.9;;
50651;SDS011;66928;52.086;5.240;2023-02-28T11:19:59;2.0;;;1.9;;
50651;SDS011;66928;52.086;5.240;2023-02-28T11:23:24;2.21;;;2.0;;
50651;SDS011;66928;52.086;5.240;2023-02-28T11:25:06;2.6;;;1.9;;
50651;SDS011;66928;52.086;5.240;2023-02-28T11:26:46;2.31;;;2.1;;
50651;SDS011;66928;52.086;5.240;2023-02-28T11:28:26;1.9;;;1.8;;
50651;SDS011;66928;52.086;5.240;2023-02-28T11:30:11;2.4;;;1.9;;
50651;SDS011;66928;52.086;5.240;2023-02-28T11:33:49;2.1;;;1.9;;
50651;SDS011;66928;52.086;5.240;2023-02-28T11:35:28;2.21;;;2.0;;
50651;SDS011;66928;52.086;5.240;2023-02-28T11:37:11;2.9;;;2.0;;
50651;SDS011;66928;52.086;5.240;2023-02-28T11:38:51;2.21;;;1.8;;
50651;SDS011;66928;52.086;5.240;2023-02-28T11:42:24;2.4;;;2.1;;
50651;SDS011;66928;52.086;5.240;2023-02-28T11:45:22;2.21;;;2.0;;
50651;SDS011;66928;52.086;5.240;2023-02-28T11:47:15;3.3;;;2.0;;
50651;SDS011;66928;52.086;5.240;2023-02-28T11:49:02;2.4;;;1.8;;
50651;SDS011;66928;52.086;5.240;2023-02-28T11:52:43;3.4;;;2.1;;
50651;SDS011;66928;52.086;5.240;2023-02-28T11:54:27;2.1;;;1.9;;
50651;SDS011;66928;52.086;5.240;2023-02-28T11:56:29;2.0;;;1.8;;
50651;SDS011;66928;52.086;5.240;2023-02-28T11:58:14;3.2;;;2.0;;
50651;SDS011;66928;52.086;5.240;2023-02-28T12:00:29;2.6;;;2.1;;
50651;SDS011;66928;52.086;5.240;2023-02-28T12:02:22;2.4;;;2.21;;
50651;SDS011;66928;52.086;5.240;2023-02-28T12:04:11;2.21;;;2.0;;
50651;SDS011;66928;52.086;5.240;2023-02-28T12:05:58;2.8;;;1.8;;
50651;SDS011;66928;52.086;5.240;2023-02-28T12:07:56;2.9;;;2.0;;
50651;SDS011;66928;52.086;5.240;2023-02-28T12:11:40;2.6;;;1.9;;
50651;SDS011;66928;52.086;5.240;2023-02-28T12:13:28;2.21;;;1.9;;
50651;SDS011;66928;52.086;5.240;2023-02-28T12:15:17;2.21;;;1.9;;
50651;SDS011;66928;52.086;5.240;2023-02-28T12:18:26;2.31;;;2.0;;
50651;SDS011;66928;52.086;5.240;2023-02-28T12:20:29;2.5;;;2.1;;
50651;SDS011;66928;52.086;5.240;2023-02-28T12:24:09;2.4;;;1.9;;
50651;SDS011;66928;52.086;5.240;2023-02-28T12:26:28;3.5;;;2.1;;
50651;SDS011;66928;52.086;5.240;2023-02-28T12:28:13;3.3;;;2.1;;
50651;SDS011;66928;52.086;5.240;2023-02-28T12:29:54;2.31;;;1.7;;
50651;SDS011;66928;52.086;5.240;2023-02-28T12:31:35;2.4;;;2.0;;
50651;SDS011;66928;52.086;5.240;2023-02-28T12:33:16;3.3;;;2.0;;
50651;SDS011;66928;52.086;5.240;2023-02-28T12:34:58;2.1;;;1.9;;
50651;SDS011;66928;52.086;5.240;2023-02-28T12:38:20;2.9;;;1.8;;
50651;SDS011;66928;52.086;5.240;2023-02-28T12:40:01;3.2;;;1.9;;
50651;SDS011;66928;52.086;5.240;2023-02-28T12:41:41;2.5;;;1.8;;
50651;SDS011;66928;52.086;5.240;2023-02-28T12:43:22;2.6;;;1.9;;
50651;SDS011;66928;52.086;5.240;2023-02-28T12:46:51;2.1;;;1.9;;
50651;SDS011;66928;52.086;5.240;2023-02-28T12:48:37;2.0;;;1.8;;
50651;SDS011;66928;52.086;5.240;2023-02-28T12:50:18;2.4;;;1.9;;
50651;SDS011;66928;52.086;5.240;2023-02-28T12:51:56;3.1;;;1.9;;
50651;SDS011;66928;52.086;5.240;2023-02-28T12:55:27;2.6;;;2.0;;
50651;SDS011;66928;52.086;5.240;2023-02-28T12:57:15;2.1;;;1.9;;
50651;SDS011;66928;52.086;5.240;2023-02-28T12:59:01;2.1;;;1.9;;
50651;SDS011;66928;52.086;5.240;2023-02-28T13:00:48;2.4;;;1.9;;
50651;SDS011;66928;52.086;5.240;2023-02-28T13:03:42;2.5;;;1.9;;
50651;SDS011;66928;52.086;5.240;2023-02-28T13:06:33;3.1;;;2.1;;
50651;SDS011;66928;52.086;5.240;2023-02-28T13:08:24;2.7;;;2.0;;
50651;SDS011;66928;52.086;5.240;2023-02-28T13:10:38;3.0;;;2.1;;
50651;SDS011;66928;52.086;5.240;2023-02-28T13:13:58;2.21;;;2.0;;
50651;SDS011;66928;52.086;5.240;2023-02-28T13:15:37;2.21;;;2.0;;
50651;SDS011;66928;52.086;5.240;2023-02-28T13:17:16;2.31;;;2.0;;
50651;SDS011;66928;52.086;5.240;2023-02-28T13:22:40;2.21;;;2.0;;
50651;SDS011;66928;52.086;5.240;2023-02-28T13:24:50;2.4;;;2.1;;
50651;SDS011;66928;52.086;5.240;2023-02-28T13:27:33;2.21;;;2.0;;
50651;SDS011;66928;52.086;5.240;2023-02-28T13:29:27;2.21;;;2.0;;
50651;SDS011;66928;52.086;5.240;2023-02-28T13:31:07;2.21;;;2.0;;
50651;SDS011;66928;52.086;5.240;2023-02-28T13:32:43;2.0;;;1.8;;
50651;SDS011;66928;52.086;5.240;2023-02-28T13:34:19;2.31;;;2.1;;
50651;SDS011;66928;52.086;5.240;2023-02-28T13:36:28;2.8;;;2.1;;
50651;SDS011;66928;52.086;5.240;2023-02-28T13:38:15;3.6;;;1.9;;
50651;SDS011;66928;52.086;5.240;2023-02-28T13:40:32;2.31;;;2.1;;
50651;SDS011;66928;52.086;5.240;2023-02-28T13:42:32;3.5;;;2.1;;
50651;SDS011;66928;52.086;5.240;2023-02-28T13:44:24;2.5;;;1.9;;
50651;SDS011;66928;52.086;5.240;2023-02-28T13:47:51;2.21;;;2.0;;
50651;SDS011;66928;52.086;5.240;2023-02-28T13:49:30;2.31;;;2.1;;
50651;SDS011;66928;52.086;5.240;2023-02-28T13:51:39;3.0;;;2.21;;
50651;SDS011;66928;52.086;5.240;2023-02-28T13:53:29;2.31;;;2.1;;
50651;SDS011;66928;52.086;5.240;2023-02-28T13:56:23;3.3;;;2.0;;
50651;SDS011;66928;52.086;5.240;2023-02-28T13:58:23;2.7;;;2.31;;
50651;SDS011;66928;52.086;5.240;2023-02-28T14:00:22;3.2;;;2.0;;
50651;SDS011;66928;52.086;5.240;2023-02-28T14:02:23;3.0;;;2.1;;
50651;SDS011;66928;52.086;5.240;2023-02-28T14:04:30;2.8;;;2.1;;
50651;SDS011;66928;52.086;5.240;2023-02-28T14:06:32;2.8;;;2.1;;
50651;SDS011;66928;52.086;5.240;2023-02-28T14:08:11;2.31;;;2.1;;
50651;SDS011;66928;52.086;5.240;2023-02-28T14:09:55;3.9;;;2.31;;
50651;SDS011;66928;52.086;5.240;2023-02-28T14:11:36;2.5;;;2.21;;
50651;SDS011;66928;52.086;5.240;2023-02-28T14:13:45;3.9;;;2.4;;
50651;SDS011;66928;52.086;5.240;2023-02-28T14:15:26;3.4;;;2.21;;
50651;SDS011;66928;52.086;5.240;2023-02-28T14:19:43;2.4;;;2.21;;
50651;SDS011;66928;52.086;5.240;2023-02-28T14:23:03;3.5;;;2.4;;
50651;SDS011;66928;52.086;5.240;2023-02-28T14:24:59;2.21;;;2.0;;
50651;SDS011;66928;52.086;5.240;2023-02-28T14:26:53;3.0;;;2.21;;
50651;SDS011;66928;52.086;5.240;2023-02-28T14:28:50;2.4;;;2.21;;
50651;SDS011;66928;52.086;5.240;2023-02-28T14:32:15;2.6;;;2.21;;
50651;SDS011;66928;52.086;5.240;2023-02-28T14:36:03;2.31;;;2.1;;
50651;SDS011;66928;52.086;5.240;2023-02-28T14:37:43;2.6;;;2.0;;
50651;SDS011;66928;52.086;5.240;2023-02-28T14:39:22;2.4;;;2.21;;
50651;SDS011;66928;52.086;5.240;2023-02-28T14:41:03;3.7;;;2.21;;
50651;SDS011;66928;52.086;5.240;2023-02-28T14:42:48;2.8;;;2.21;;
50651;SDS011;66928;52.086;5.240;2023-02-28T14:46:12;3.3;;;2.31;;
50651;SDS011;66928;52.086;5.240;2023-02-28T14:47:50;2.4;;;2.0;;
50651;SDS011;66928;52.086;5.240;2023-02-28T14:49:27;3.1;;;2.31;;
50651;SDS011;66928;52.086;5.240;2023-02-28T14:51:05;2.6;;;2.31;;
50651;SDS011;66928;52.086;5.240;2023-02-28T14:54:19;2.31;;;2.1;;
50651;SDS011;66928;52.086;5.240;2023-02-28T14:55:59;2.8;;;2.21;;
50651;SDS011;66928;52.086;5.240;2023-02-28T14:57:39;2.7;;;2.21;;
50651;SDS011;66928;52.086;5.240;2023-02-28T14:59:23;4.2;;;2.21;;
50651;SDS011;66928;52.086;5.240;2023-02-28T15:02:40;2.6;;;2.31;;
50651;SDS011;66928;52.086;5.240;2023-02-28T15:04:20;2.9;;;2.31;;
50651;SDS011;66928;52.086;5.240;2023-02-28T15:06:02;3.3;;;2.31;;
50651;SDS011;66928;52.086;5.240;2023-02-28T15:07:40;2.9;;;2.4;;
50651;SDS011;66928;52.086;5.240;2023-02-28T15:10:55;4.5;;;2.4;;
50651;SDS011;66928;52.086;5.240;2023-02-28T15:12:35;3.3;;;2.31;;
50651;SDS011;66928;52.086;5.240;2023-02-28T15:14:15;2.5;;;2.31;;
50651;SDS011;66928;52.086;5.240;2023-02-28T15:17:34;3.3;;;2.5;;
50651;SDS011;66928;52.086;5.240;2023-02-28T15:19:12;3.0;;;2.4;;
50651;SDS011;66928;52.086;5.240;2023-02-28T15:20:55;3.1;;;2.31;;
50651;SDS011;66928;52.086;5.240;2023-02-28T15:22:36;2.7;;;2.5;;
50651;SDS011;66928;52.086;5.240;2023-02-28T15:25:56;4.1;;;2.4;;
50651;SDS011;66928;52.086;5.240;2023-02-28T15:27:34;2.4;;;2.21;;
50651;SDS011;66928;52.086;5.240;2023-02-28T15:29:19;3.7;;;2.31;;
50651;SDS011;66928;52.086;5.240;2023-02-28T15:30:59;2.9;;;2.31;;
50651;SDS011;66928;52.086;5.240;2023-02-28T15:34:17;2.8;;;2.31;;
50651;SDS011;66928;52.086;5.240;2023-02-28T15:36:05;2.4;;;2.21;;
50651;SDS011;66928;52.086;5.240;2023-02-28T15:37:52;3.0;;;2.1;;
50651;SDS011;66928;52.086;5.240;2023-02-28T15:39:30;3.8;;;2.0;;
50651;SDS011;66928;52.086;5.240;2023-02-28T15:41:21;2.31;;;2.1;;
50651;SDS011;66928;52.086;5.240;2023-02-28T15:44:41;2.31;;;2.1;;
50651;SDS011;66928;52.086;5.240;2023-02-28T15:46:18;3.0;;;2.31;;
50651;SDS011;66928;52.086;5.240;2023-02-28T15:47:55;2.6;;;2.21;;
50651;SDS011;66928;52.086;5.240;2023-02-28T15:49:34;2.4;;;2.21;;
50651;SDS011;66928;52.086;5.240;2023-02-28T15:52:59;2.5;;;2.31;;
50651;SDS011;66928;52.086;5.240;2023-02-28T15:54:36;3.5;;;2.21;;
50651;SDS011;66928;52.086;5.240;2023-02-28T15:56:21;2.4;;;2.21;;
50651;SDS011;66928;52.086;5.240;2023-02-28T15:58:00;3.1;;;2.31;;
50651;SDS011;66928;52.086;5.240;2023-02-28T16:01:19;2.8;;;2.21;;
50651;SDS011;66928;52.086;5.240;2023-02-28T16:02:59;3.2;;;2.5;;
50651;SDS011;66928;52.086;5.240;2023-02-28T16:04:36;3.6;;;2.31;;
50651;SDS011;66928;52.086;5.240;2023-02-28T16:06:23;3.6;;;2.31;;
50651;SDS011;66928;52.086;5.240;2023-02-28T16:08:38;2.7;;;2.31;;
50651;SDS011;66928;52.086;5.240;2023-02-28T16:11:51;3.2;;;2.31;;
50651;SDS011;66928;52.086;5.240;2023-02-28T16:13:30;3.0;;;2.4;;
50651;SDS011;66928;52.086;5.240;2023-02-28T16:15:07;2.5;;;2.31;;
50651;SDS011;66928;52.086;5.240;2023-02-28T16:16:54;2.7;;;2.21;;
50651;SDS011;66928;52.086;5.240;2023-02-28T16:20:14;3.7;;;2.4;;
50651;SDS011;66928;52.086;5.240;2023-02-28T16:21:52;4.8;;;2.31;;
50651;SDS011;66928;52.086;5.240;2023-02-28T16:23:28;4.0;;;2.1;;
50651;SDS011;66928;52.086;5.240;2023-02-28T16:25:05;2.8;;;2.21;;
50651;SDS011;66928;52.086;5.240;2023-02-28T16:28:23;2.31;;;2.1;;
50651;SDS011;66928;52.086;5.240;2023-02-28T16:30:05;2.5;;;2.1;;
50651;SDS011;66928;52.086;5.240;2023-02-28T16:31:46;3.3;;;2.31;;
50651;SDS011;66928;52.086;5.240;2023-02-28T16:34:59;2.21;;;2.0;;
50651;SDS011;66928;52.086;5.240;2023-02-28T16:36:35;3.2;;;2.21;;
50651;SDS011;66928;52.086;5.240;2023-02-28T16:38:12;3.0;;;2.21;;
50651;SDS011;66928;52.086;5.240;2023-02-28T16:39:48;2.6;;;2.21;;
50651;SDS011;66928;52.086;5.240;2023-02-28T16:43:05;2.21;;;1.9;;
50651;SDS011;66928;52.086;5.240;2023-02-28T16:44:46;2.8;;;2.21;;
50651;SDS011;66928;52.086;5.240;2023-02-28T16:46:23;2.6;;;2.0;;
50651;SDS011;66928;52.086;5.240;2023-02-28T16:48:03;2.7;;;2.1;;
50651;SDS011;66928;52.086;5.240;2023-02-28T16:51:16;2.7;;;2.1;;
50651;SDS011;66928;52.086;5.240;2023-02-28T16:52:54;4.0;;;1.9;;
50651;SDS011;66928;52.086;5.240;2023-02-28T16:54:31;2.7;;;2.31;;
50651;SDS011;66928;52.086;5.240;2023-02-28T16:57:52;3.1;;;2.4;;
50651;SDS011;66928;52.086;5.240;2023-02-28T16:59:30;2.5;;;2.31;;
50651;SDS011;66928;52.086;5.240;2023-02-28T17:01:07;3.4;;;2.31;;
50651;SDS011;66928;52.086;5.240;2023-02-28T17:02:44;3.2;;;2.31;;
50651;SDS011;66928;52.086;5.240;2023-02-28T17:05:56;3.1;;;2.6;;
50651;SDS011;66928;52.086;5.240;2023-02-28T17:07:32;2.6;;;2.1;;
50651;SDS011;66928;52.086;5.240;2023-02-28T17:09:08;2.5;;;2.31;;
50651;SDS011;66928;52.086;5.240;2023-02-28T17:12:27;4.7;;;2.5;;
50651;SDS011;66928;52.086;5.240;2023-02-28T17:14:03;4.1;;;2.6;;
50651;SDS011;66928;52.086;5.240;2023-02-28T17:15:40;4.2;;;2.6;;
50651;SDS011;66928;52.086;5.240;2023-02-28T17:18:57;2.5;;;2.31;;
50651;SDS011;66928;52.086;5.240;2023-02-28T17:20:37;3.2;;;2.5;;
50651;SDS011;66928;52.086;5.240;2023-02-28T17:22:13;3.7;;;2.5;;
50651;SDS011;66928;52.086;5.240;2023-02-28T17:23:50;3.8;;;2.5;;
50651;SDS011;66928;52.086;5.240;2023-02-28T17:27:03;3.6;;;2.6;;
50651;SDS011;66928;52.086;5.240;2023-02-28T17:28:40;2.8;;;2.4;;
50651;SDS011;66928;52.086;5.240;2023-02-28T17:30:16;5.0;;;2.5;;
50651;SDS011;66928;52.086;5.240;2023-02-28T17:32:00;3.2;;;2.6;;
50651;SDS011;66928;52.086;5.240;2023-02-28T17:35:14;3.8;;;2.6;;
50651;SDS011;66928;52.086;5.240;2023-02-28T17:36:51;3.4;;;2.6;;
50651;SDS011;66928;52.086;5.240;2023-02-28T17:38:28;3.3;;;2.4;;
50651;SDS011;66928;52.086;5.240;2023-02-28T17:41:42;2.6;;;2.4;;
50651;SDS011;66928;52.086;5.240;2023-02-28T17:43:18;4.5;;;2.9;;
50651;SDS011;66928;52.086;5.240;2023-02-28T17:44:54;4.3;;;2.7;;
50651;SDS011;66928;52.086;5.240;2023-02-28T17:48:08;4.3;;;3.3;;
50651;SDS011;66928;52.086;5.240;2023-02-28T17:49:46;4.0;;;2.9;;
50651;SDS011;66928;52.086;5.240;2023-02-28T17:51:23;3.6;;;3.1;;
50651;SDS011;66928;52.086;5.240;2023-02-28T17:53:00;4.2;;;3.0;;
50651;SDS011;66928;52.086;5.240;2023-02-28T17:56:12;3.5;;;3.1;;
50651;SDS011;66928;52.086;5.240;2023-02-28T17:57:51;4.1;;;2.9;;
50651;SDS011;66928;52.086;5.240;2023-02-28T17:59:27;3.9;;;3.1;;
50651;SDS011;66928;52.086;5.240;2023-02-28T18:02:41;5.5;;;3.0;;
50651;SDS011;66928;52.086;5.240;2023-02-28T18:04:18;5.2;;;3.3;;
50651;SDS011;66928;52.086;5.240;2023-02-28T18:05:54;3.3;;;3.0;;
50651;SDS011;66928;52.086;5.240;2023-02-28T18:09:08;5.3;;;4.1;;
50651;SDS011;66928;52.086;5.240;2023-02-28T18:10:44;7.4;;;5.3;;
50651;SDS011;66928;52.086;5.240;2023-02-28T18:12:20;8.5;;;6.6;;
50651;SDS011;66928;52.086;5.240;2023-02-28T18:13:56;9.5;;;6.8;;
50651;SDS011;66928;52.086;5.240;2023-02-28T18:17:09;7.0;;;5.6;;
50651;SDS011;66928;52.086;5.240;2023-02-28T18:18:48;6.2;;;5.11;;
50651;SDS011;66928;52.086;5.240;2023-02-28T18:20:25;5.9;;;4.61;;
50651;SDS011;66928;52.086;5.240;2023-02-28T18:23:37;5.6;;;4.41;;
50651;SDS011;66928;52.086;5.240;2023-02-28T18:25:14;5.6;;;4.41;;
50651;SDS011;66928;52.086;5.240;2023-02-28T18:26:50;6.1;;;4.7;;
50651;SDS011;66928;52.086;5.240;2023-02-28T18:30:03;7.6;;;6.0;;
50651;SDS011;66928;52.086;5.240;2023-02-28T18:31:40;6.6;;;5.5;;
50651;SDS011;66928;52.086;5.240;2023-02-28T18:33:16;7.9;;;5.4;;
50651;SDS011;66928;52.086;5.240;2023-02-28T18:34:52;7.1;;;5.6;;
50651;SDS011;66928;52.086;5.240;2023-02-28T18:38:06;7.6;;;5.6;;
50651;SDS011;66928;52.086;5.240;2023-02-28T18:39:44;6.9;;;5.11;;
50651;SDS011;66928;52.086;5.240;2023-02-28T18:41:20;7.8;;;5.3;;
50651;SDS011;66928;52.086;5.240;2023-02-28T18:44:33;7.9;;;5.8;;
50651;SDS011;66928;52.086;5.240;2023-02-28T18:46:12;9.71;;;6.7;;
50651;SDS011;66928;52.086;5.240;2023-02-28T18:47:50;10.4;;;8.0;;
50651;SDS011;66928;52.086;5.240;2023-02-28T18:49:27;10.1;;;6.8;;
50651;SDS011;66928;52.086;5.240;2023-02-28T18:52:43;7.9;;;6.3;;
50651;SDS011;66928;52.086;5.240;2023-02-28T18:54:19;9.5;;;6.3;;
50651;SDS011;66928;52.086;5.240;2023-02-28T18:55:58;8.4;;;6.5;;
50651;SDS011;66928;52.086;5.240;2023-02-28T18:59:11;9.4;;;6.8;;
50651;SDS011;66928;52.086;5.240;2023-02-28T19:00:47;8.71;;;6.7;;
50651;SDS011;66928;52.086;5.240;2023-02-28T19:02:24;10.7;;;6.8;;
50651;SDS011;66928;52.086;5.240;2023-02-28T19:05:38;10.5;;;6.7;;
50651;SDS011;66928;52.086;5.240;2023-02-28T19:07:14;8.71;;;6.3;;
50651;SDS011;66928;52.086;5.240;2023-02-28T19:08:52;8.71;;;6.7;;
50651;SDS011;66928;52.086;5.240;2023-02-28T19:10:28;11.3;;;6.7;;
50651;SDS011;66928;52.086;5.240;2023-02-28T19:13:42;8.81;;;6.0;;
50651;SDS011;66928;52.086;5.240;2023-02-28T19:15:20;8.9;;;7.4;;
50651;SDS011;66928;52.086;5.240;2023-02-28T19:16:57;9.9;;;8.81;;
50651;SDS011;66928;52.086;5.240;2023-02-28T19:20:11;11.7;;;9.4;;
50651;SDS011;66928;52.086;5.240;2023-02-28T19:21:48;13.3;;;10.1;;
50651;SDS011;66928;52.086;5.240;2023-02-28T19:23:24;12.3;;;9.0;;
50651;SDS011;66928;52.086;5.240;2023-02-28T19:25:01;11.5;;;8.6;;
50651;SDS011;66928;52.086;5.240;2023-02-28T19:28:14;13.5;;;9.31;;
50651;SDS011;66928;52.086;5.240;2023-02-28T19:29:51;13.6;;;9.0;;
50651;SDS011;66928;52.086;5.240;2023-02-28T19:31:28;12.6;;;9.21;;